Time;durP1;ratioP1;P1;durP2;ratioP2;P2;SDS_P1;SDS_P2;PMS_P1;PMS_P2;Temp;Humidity;BMP_temperature;BMP_pressure;BME280_temperature;BME280_humidity;BME280_pressure;Samples;Min_cycle;Max_cycle;Signal;HPM_P1;HPM_P2
2024/02/21 00:00:12;;;;;;;10.90;7.40;;;;;;;6.62;67.77;95244.75;4221579;28;20116;-71
2024/02/21 00:02:15;;;;;;;6.80;6.07;;;;;;;6.61;67.59;95253.53;4214743;28;20059;-70
2024/02/21 00:04:17;;;;;;;7.88;6.75;;;;;;;6.61;67.59;95243.13;4242244;28;20276;-68
2024/02/21 00:06:18;;;;;;;8.70;6.75;;;;;;;6.56;68.14;95244.31;4241999;28;20039;-69
2024/02/21 00:08:20;;;;;;;7.47;6.13;;;;;;;6.60;67.69;95239.66;4240250;28;20043;-69
2024/02/21 00:10:22;;;;;;;7.32;6.25;;;;;;;6.63;67.64;95246.44;4239429;28;20140;-69
2024/02/21 00:12:24;;;;;;;8.48;6.68;;;;;;;6.28;68.50;95244.78;4242043;28;20096;-70
2024/02/21 00:14:26;;;;;;;7.28;6.55;;;;;;;6.30;69.11;95248.97;4232920;28;20498;-67
2024/02/21 00:16:28;;;;;;;7.60;6.80;;;;;;;6.28;68.98;95239.59;4201189;28;20159;-68
2024/02/21 00:18:30;;;;;;;9.02;7.10;;;;;;;6.10;69.73;95240.06;4230438;28;20055;-68
2024/02/21 00:20:32;;;;;;;8.98;7.63;;;;;;;5.97;70.42;95239.38;4241910;28;20066;-70
2024/02/21 00:22:34;;;;;;;8.05;7.25;;;;;;;5.99;70.40;95232.28;4237777;28;20178;-70
2024/02/21 00:24:36;;;;;;;8.43;7.00;;;;;;;6.11;69.91;95239.16;4224382;28;20051;-68
2024/02/21 00:26:38;;;;;;;7.43;6.57;;;;;;;6.14;69.35;95238.06;4240079;28;20055;-68
2024/02/21 00:28:40;;;;;;;7.10;6.40;;;;;;;6.19;68.99;95237.72;4243021;27;20116;-68
2024/02/21 00:30:42;;;;;;;7.03;6.32;;;;;;;6.20;69.18;95236.78;4238570;27;20455;-69
2024/02/21 00:32:43;;;;;;;7.43;6.47;;;;;;;6.24;68.50;95233.81;4244622;27;20508;-68
2024/02/21 00:34:45;;;;;;;7.03;6.30;;;;;;;6.26;68.94;95233.69;4239098;27;20041;-70
2024/02/21 00:36:47;;;;;;;7.57;6.47;;;;;;;6.21;68.90;95238.44;4241710;27;20194;-71
2024/02/21 00:38:49;;;;;;;7.82;6.75;;;;;;;6.20;69.21;95236.78;4245801;27;20050;-69
2024/02/21 00:40:51;;;;;;;8.35;7.05;;;;;;;6.23;68.73;95228.72;4236544;27;20196;-67
2024/02/21 00:42:53;;;;;;;7.85;7.05;;;;;;;6.23;68.83;95231.34;4244701;27;20069;-67
2024/02/21 00:44:55;;;;;;;8.10;6.53;;;;;;;6.17;68.92;95234.41;4235377;27;20094;-68
2024/02/21 00:46:56;;;;;;;7.65;6.93;;;;;;;5.78;70.44;95228.69;4235892;27;20515;-70
2024/02/21 00:48:58;;;;;;;7.38;6.57;;;;;;;5.50;71.88;95231.59;4238364;27;20108;-70
2024/02/21 00:51:00;;;;;;;8.32;7.43;;;;;;;5.60;71.82;95234.34;4240209;27;20134;-68
2024/02/21 00:53:02;;;;;;;9.35;8.00;;;;;;;5.49;71.64;95229.94;4234813;27;20039;-67
2024/02/21 00:55:05;;;;;;;8.27;7.38;;;;;;;5.49;72.71;95226.53;4237714;27;20431;-71
2024/02/21 00:57:06;;;;;;;8.57;7.70;;;;;;;5.44;72.58;95224.28;4241956;27;20052;-70
2024/02/21 00:59:08;;;;;;;8.45;7.55;;;;;;;5.30;73.33;95220.09;4238349;27;20231;-68
2024/02/21 01:01:10;;;;;;;9.43;7.68;;;;;;;5.21;73.46;95213.00;4245722;27;20050;-69
2024/02/21 01:03:12;;;;;;;9.30;8.15;;;;;;;5.23;73.65;95211.13;4236427;27;20047;-68
2024/02/21 01:05:14;;;;;;;8.70;7.80;;;;;;;5.32;73.41;95213.00;4230338;27;20475;-70
2024/02/21 01:07:16;;;;;;;9.13;8.23;;;;;;;5.43;73.36;95214.00;4244155;27;20130;-70
2024/02/21 01:09:18;;;;;;;8.68;7.75;;;;;;;5.44;72.82;95208.69;4245307;27;20070;-69
2024/02/21 01:11:20;;;;;;;8.80;7.90;;;;;;;5.39;72.41;95200.41;4241726;27;20392;-71
2024/02/21 01:13:22;;;;;;;8.85;7.82;;;;;;;5.19;73.21;95204.47;4243997;27;20087;-69
2024/02/21 01:15:24;;;;;;;9.23;7.63;;;;;;;5.28;73.69;95197.78;4223808;28;20039;-67
2024/02/21 01:17:26;;;;;;;8.13;7.22;;;;;;;5.51;73.16;95204.69;4245093;27;20122;-69
2024/02/21 01:19:28;;;;;;;8.45;7.47;;;;;;;5.71;72.71;95197.13;4243216;27;20567;-68
2024/02/21 01:21:30;;;;;;;8.77;7.88;;;;;;;5.70;71.85;95201.50;4237885;27;20131;-68
2024/02/21 01:23:32;;;;;;;9.10;8.10;;;;;;;5.78;71.85;95198.31;4241664;27;20082;-68
2024/02/21 01:25:34;;;;;;;8.80;7.88;;;;;;;5.87;71.44;95191.56;4237543;27;20085;-69
2024/02/21 01:27:35;;;;;;;8.40;7.18;;;;;;;5.97;71.10;95197.75;4238296;27;20094;-69
2024/02/21 01:29:37;;;;;;;8.25;7.35;;;;;;;6.05;70.15;95195.41;4242284;27;20154;-69
2024/02/21 01:31:39;;;;;;;8.45;7.55;;;;;;;6.14;70.20;95186.88;4244529;27;20054;-70
2024/02/21 01:33:42;;;;;;;7.88;7.05;;;;;;;6.26;69.95;95189.44;4238467;27;20043;-70
2024/02/21 01:35:44;;;;;;;7.78;6.38;;;;;;;6.32;69.20;95192.44;4241895;27;20386;-67
2024/02/21 01:37:46;;;;;;;8.38;7.47;;;;;;;6.35;69.12;95184.38;4238553;27;20104;-70
2024/02/21 01:39:49;;;;;;;9.57;7.95;;;;;;;6.37;68.73;95176.44;4236121;27;20039;-69
2024/02/21 01:41:51;;;;;;;7.43;6.72;;;;;;;6.38;68.20;95180.69;4223580;28;20043;-69
2024/02/21 01:43:53;;;;;;;9.82;7.80;;;;;;;6.39;67.99;95174.56;4242696;27;20821;-69
2024/02/21 01:45:55;;;;;;;8.07;7.28;;;;;;;6.48;68.23;95173.81;4241570;27;20130;-68
2024/02/21 01:47:58;;;;;;;8.63;7.72;;;;;;;6.48;67.73;95175.59;4241238;27;20047;-71
2024/02/21 01:50:02;;;;;;;7.57;6.78;;;;;;;6.51;67.34;95170.13;4233882;27;20055;-68
2024/02/21 01:52:04;;;;;;;9.15;6.93;;;;;;;6.55;67.37;95171.53;4236861;27;20071;-71
2024/02/21 01:54:06;;;;;;;8.30;7.15;;;;;;;6.56;67.13;95173.22;4244528;27;20051;-70
2024/02/21 01:56:08;;;;;;;10.30;8.35;;;;;;;6.51;66.69;95165.75;4241934;27;20521;-69
2024/02/21 01:58:10;;;;;;;9.10;8.02;;;;;;;6.57;66.99;95169.63;4244205;27;20123;-72
2024/02/21 02:00:13;;;;;;;9.85;8.07;;;;;;;6.54;66.49;95164.69;4243529;27;20135;-69
2024/02/21 02:02:16;;;;;;;9.00;8.10;;;;;;;6.55;66.54;95166.34;4243247;27;20405;-68
2024/02/21 02:04:19;;;;;;;9.98;8.98;;;;;;;6.48;66.64;95168.59;4234603;27;20172;-69
2024/02/21 02:06:21;;;;;;;10.00;8.98;;;;;;;6.43;67.16;95170.75;4222505;28;20052;-70
2024/02/21 02:08:23;;;;;;;10.52;9.38;;;;;;;6.44;66.96;95175.00;4230671;27;20048;-69
2024/02/21 02:10:24;;;;;;;11.40;9.55;;;;;;;6.45;66.88;95166.22;4240211;27;20874;-69
2024/02/21 02:12:27;;;;;;;11.40;10.18;;;;;;;6.46;67.14;95170.50;4238246;27;20133;-70
2024/02/21 02:14:28;;;;;;;11.68;10.48;;;;;;;6.48;67.41;95171.19;4242213;27;20442;-69
2024/02/21 02:16:30;;;;;;;12.57;10.93;;;;;;;6.49;66.71;95170.25;4236884;27;20047;-70
2024/02/21 02:18:32;;;;;;;11.35;10.18;;;;;;;6.47;67.38;95166.94;4236596;27;20476;-69
2024/02/21 02:20:35;;;;;;;13.45;11.48;;;;;;;6.49;66.91;95172.84;4215970;28;20050;-69
2024/02/21 02:22:39;;;;;;;13.57;11.93;;;;;;;6.50;66.84;95158.91;4243611;27;20047;-68
2024/02/21 02:24:41;;;;;;;13.32;11.80;;;;;;;6.50;66.67;95153.69;4242865;27;20088;-69
2024/02/21 02:26:43;;;;;;;12.60;11.10;;;;;;;6.49;66.42;95154.63;4233386;27;20542;-66
2024/02/21 02:28:44;;;;;;;13.38;11.60;;;;;;;6.55;66.54;95151.53;4238303;27;20043;-70
2024/02/21 02:30:48;;;;;;;16.33;12.10;;;;;;;6.47;66.17;95153.91;4231222;27;20047;-68
2024/02/21 02:32:50;;;;;;;13.50;11.82;;;;;;;6.43;66.47;95152.53;4242734;27;20490;-68
2024/02/21 02:34:51;;;;;;;14.15;11.70;;;;;;;6.28;67.66;95151.13;4220370;28;20151;-71
2024/02/21 02:36:54;;;;;;;14.98;12.77;;;;;;;6.19;67.88;95147.47;4215784;28;20043;-68
2024/02/21 02:38:56;;;;;;;14.20;12.63;;;;;;;6.11;67.82;95145.50;4238582;27;20413;-68
2024/02/21 02:40:58;;;;;;;15.13;12.82;;;;;;;6.18;68.19;95147.63;4243586;27;20472;-67
2024/02/21 02:43:00;;;;;;;14.05;12.52;;;;;;;6.29;68.12;95145.81;4236015;27;20575;-69
2024/02/21 02:45:03;;;;;;;14.77;13.15;;;;;;;6.25;68.09;95147.00;4239317;27;20500;-69
2024/02/21 02:47:05;;;;;;;13.95;12.07;;;;;;;6.19;67.95;95141.47;4234944;27;20051;-70
2024/02/21 02:49:12;;;;;;;15.50;13.23;;;;;;;6.26;68.01;95146.06;4234200;27;20039;-70
2024/02/21 02:51:14;;;;;;;14.20;12.30;;;;;;;6.35;67.83;95149.72;4221536;27;20105;-69
2024/02/21 02:53:16;;;;;;;13.25;11.93;;;;;;;6.33;67.35;95159.41;4239545;27;20058;-69
2024/02/21 02:55:17;;;;;;;13.77;12.18;;;;;;;6.40;67.13;95151.94;4242415;27;20043;-69
2024/02/21 02:57:19;;;;;;;13.85;12.32;;;;;;;6.47;66.92;95153.91;4237005;27;20039;-70
2024/02/21 02:59:21;;;;;;;13.30;11.88;;;;;;;6.58;67.00;95155.66;4224835;28;20109;-68
2024/02/21 03:01:23;;;;;;;15.20;12.93;;;;;;;6.62;66.54;95156.25;4224066;28;20043;-70
2024/02/21 03:03:25;;;;;;;14.07;12.57;;;;;;;6.58;66.03;95150.44;4237421;27;20043;-70
2024/02/21 03:05:27;;;;;;;15.05;13.02;;;;;;;6.52;66.52;95154.41;4236037;27;20073;-69
2024/02/21 03:07:29;;;;;;;14.45;12.95;;;;;;;6.41;66.57;95149.22;4237028;27;20071;-69
2024/02/21 03:09:31;;;;;;;14.20;12.68;;;;;;;6.43;66.99;95155.13;4242214;27;20065;-70
2024/02/21 03:11:33;;;;;;;14.57;12.95;;;;;;;6.42;67.14;95153.47;4221096;28;20047;-68
2024/02/21 03:13:35;;;;;;;15.35;12.55;;;;;;;6.40;67.32;95152.75;4237911;27;20455;-68
2024/02/21 03:15:37;;;;;;;14.77;12.63;;;;;;;6.21;67.71;95158.59;4233655;27;20368;-69
2024/02/21 03:17:39;;;;;;;14.35;12.45;;;;;;;6.12;67.87;95164.53;4240835;27;20066;-69
2024/02/21 03:19:41;;;;;;;15.77;12.98;;;;;;;5.92;68.32;95174.69;4242531;27;20359;-70
2024/02/21 03:21:44;;;;;;;14.10;12.60;;;;;;;5.84;68.83;95173.63;4236145;27;20059;-71
2024/02/21 03:23:46;;;;;;;15.00;12.82;;;;;;;5.65;69.80;95175.03;4242970;27;20368;-69
2024/02/21 03:25:48;;;;;;;16.35;12.93;;;;;;;5.58;70.39;95181.66;4242303;27;20463;-70
2024/02/21 03:27:50;;;;;;;15.00;13.40;;;;;;;5.69;69.88;95176.44;4242580;27;20049;-68
2024/02/21 03:29:52;;;;;;;14.07;12.63;;;;;;;5.77;69.21;95172.44;4239756;27;20085;-70
2024/02/21 03:31:55;;;;;;;14.00;12.52;;;;;;;5.75;69.27;95175.16;4237791;27;20392;-68
2024/02/21 03:33:56;;;;;;;16.20;12.93;;;;;;;5.61;70.01;95176.19;4242289;27;20199;-67
2024/02/21 03:35:58;;;;;;;15.40;13.35;;;;;;;5.57;70.54;95179.16;4234224;27;20726;-69
2024/02/21 03:38:00;;;;;;;15.65;12.95;;;;;;;5.41;70.36;95184.69;4238487;27;20045;-68
2024/02/21 03:40:07;;;;;;;14.95;13.20;;;;;;;5.39;71.00;95182.22;4239819;27;20089;-69
2024/02/21 03:42:09;;;;;;;15.75;13.70;;;;;;;5.30;70.46;95186.31;4237328;27;20129;-70
2024/02/21 03:44:11;;;;;;;16.15;13.88;;;;;;;5.26;71.42;95184.06;4241330;27;20514;-68
2024/02/21 03:46:12;;;;;;;15.07;13.48;;;;;;;5.27;71.31;95186.56;4242474;27;20116;-68
2024/02/21 03:48:14;;;;;;;16.67;14.30;;;;;;;5.13;71.32;95192.78;4242605;27;20082;-67
2024/02/21 03:50:16;;;;;;;16.60;13.27;;;;;;;5.20;71.69;95195.72;4240582;27;20047;-69
2024/02/21 03:52:18;;;;;;;14.88;13.27;;;;;;;5.25;71.91;95188.44;4223677;28;20051;-68
2024/02/21 03:54:20;;;;;;;17.13;14.20;;;;;;;5.37;70.63;95189.28;4241257;27;20364;-68
2024/02/21 03:56:22;;;;;;;16.73;14.93;;;;;;;5.19;70.67;95191.50;4242166;27;20050;-68
2024/02/21 03:58:24;;;;;;;16.92;14.50;;;;;;;5.14;71.51;95188.41;4230018;28;20150;-71
2024/02/21 04:00:26;;;;;;;17.58;14.90;;;;;;;5.29;71.49;95192.47;4240683;28;20051;-70
2024/02/21 04:02:28;;;;;;;17.98;14.57;;;;;;;5.46;70.91;95188.63;4241636;28;20168;-69
2024/02/21 04:04:29;;;;;;;18.33;15.80;;;;;;;5.32;70.83;95194.00;4230152;27;20071;-69
2024/02/21 04:06:31;;;;;;;18.05;15.80;;;;;;;5.17;71.25;95183.00;4211848;28;20141;-69
2024/02/21 04:08:33;;;;;;;17.63;15.52;;;;;;;5.26;71.55;95191.88;4242619;28;20075;-70
2024/02/21 04:10:35;;;;;;;17.90;15.98;;;;;;;5.27;71.18;95186.56;4241850;28;20131;-68
2024/02/21 04:12:38;;;;;;;17.58;15.70;;;;;;;5.43;71.12;95183.63;4236513;28;20063;-69
2024/02/21 04:14:40;;;;;;;16.70;15.00;;;;;;;5.58;70.66;95186.84;4226941;28;20053;-69
2024/02/21 04:16:45;;;;;;;18.10;16.20;;;;;;;5.45;70.23;95186.13;4239658;28;20474;-68
2024/02/21 04:18:47;;;;;;;19.02;16.50;;;;;;;5.52;71.17;95184.72;4240738;28;20497;-68
2024/02/21 04:20:51;;;;;;;19.10;17.10;;;;;;;5.49;70.68;95174.56;4233467;28;20553;-68
2024/02/21 04:22:53;;;;;;;20.10;17.25;;;;;;;5.49;70.47;95175.38;4238845;28;20047;-66
2024/02/21 04:24:55;;;;;;;24.85;18.50;;;;;;;5.40;71.01;95183.03;4240227;28;20047;-68
2024/02/21 04:26:57;;;;;;;23.73;18.50;;;;;;;5.41;71.07;95187.28;4240944;28;20127;-69
2024/02/21 04:28:59;;;;;;;19.60;16.75;;;;;;;5.47;70.91;95179.03;4236214;28;20126;-68
2024/02/21 04:31:02;;;;;;;19.52;17.42;;;;;;;5.46;70.83;95174.78;4234797;28;20059;-69
2024/02/21 04:33:04;;;;;;;21.73;18.08;;;;;;;5.42;70.82;95179.41;4236717;28;20083;-68
2024/02/21 04:35:06;;;;;;;21.98;19.15;;;;;;;5.44;71.02;95184.44;4236038;28;20123;-68
2024/02/21 04:37:08;;;;;;;20.23;17.65;;;;;;;5.46;70.60;95193.81;4239072;27;20054;-69
2024/02/21 04:39:11;;;;;;;20.80;17.50;;;;;;;5.41;70.98;95184.69;4232483;28;20118;-67
2024/02/21 04:41:13;;;;;;;20.63;17.50;;;;;;;5.46;70.58;95190.38;4234881;28;20043;-69
2024/02/21 04:43:15;;;;;;;21.25;17.23;;;;;;;5.31;70.73;95185.41;4240319;28;20043;-68
2024/02/21 04:45:17;;;;;;;20.90;17.95;;;;;;;5.19;71.50;95191.50;4223321;28;20430;-69
2024/02/21 04:47:24;;;;;;;23.00;17.90;;;;;;;5.07;72.22;95188.03;4233472;28;20088;-67
2024/02/21 04:49:26;;;;;;;20.65;17.98;;;;;;;5.05;71.76;95189.91;4216574;28;20074;-69
2024/02/21 04:51:28;;;;;;;23.05;18.95;;;;;;;5.14;71.54;95188.41;4233850;28;20055;-68
2024/02/21 04:53:30;;;;;;;21.98;19.35;;;;;;;5.19;71.31;95193.28;4222500;28;20048;-69
2024/02/21 04:55:32;;;;;;;21.60;18.55;;;;;;;5.06;71.88;95188.97;4228649;28;20082;-68
2024/02/21 04:57:34;;;;;;;21.35;18.45;;;;;;;4.93;72.00;95196.03;4219223;28;20171;-70
2024/02/21 04:59:36;;;;;;;22.73;19.35;;;;;;;5.12;72.76;95179.91;4211398;28;20056;-68
2024/02/21 05:01:38;;;;;;;21.20;17.73;;;;;;;5.28;72.18;95184.78;4233300;28;20051;-68
2024/02/21 05:03:40;;;;;;;23.67;17.90;;;;;;;5.48;71.04;95183.28;4229283;28;20055;-71
2024/02/21 05:05:42;;;;;;;21.02;17.48;;;;;;;5.62;70.35;95188.28;4228772;28;20067;-70
2024/02/21 05:07:45;;;;;;;19.33;16.35;;;;;;;5.66;69.75;95184.50;4219552;28;20318;-70
2024/02/21 05:09:47;;;;;;;18.45;15.32;;;;;;;5.71;70.02;95184.97;4236425;28;20138;-69
2024/02/21 05:11:48;;;;;;;18.95;16.27;;;;;;;5.78;69.47;95187.91;4237302;28;20039;-68
2024/02/21 05:13:50;;;;;;;24.17;17.75;;;;;;;5.81;68.56;95192.91;4240536;28;20142;-70
2024/02/21 05:15:52;;;;;;;20.45;17.80;;;;;;;5.61;69.62;95197.00;4238722;27;20078;-68
2024/02/21 05:17:54;;;;;;;23.08;18.73;;;;;;;5.36;70.48;95198.03;4244321;27;20039;-68
2024/02/21 05:19:56;;;;;;;21.98;17.75;;;;;;;5.45;70.62;95204.31;4245229;27;20069;-68
2024/02/21 05:21:59;;;;;;;23.60;18.33;;;;;;;5.50;70.12;95203.00;4237481;27;20135;-69
2024/02/21 05:24:01;;;;;;;24.25;20.45;;;;;;;5.40;69.57;95203.81;4245669;27;20115;-71
2024/02/21 05:26:03;;;;;;;25.27;20.50;;;;;;;5.31;69.90;95205.31;4243613;27;20055;-71
2024/02/21 05:28:06;;;;;;;24.48;19.17;;;;;;;5.22;71.01;95199.06;4227043;28;20451;-69
2024/02/21 05:30:09;;;;;;;21.67;18.70;;;;;;;5.32;70.69;95205.22;4244276;27;20054;-72
2024/02/21 05:32:11;;;;;;;21.55;19.10;;;;;;;5.49;70.14;95203.13;4244526;27;20043;-71
2024/02/21 05:34:13;;;;;;;21.23;18.92;;;;;;;5.47;69.25;95199.81;4241728;27;20074;-71
2024/02/21 05:36:15;;;;;;;24.65;19.42;;;;;;;5.38;69.76;95197.91;4245333;27;20058;-68
2024/02/21 05:38:17;;;;;;;22.30;18.50;;;;;;;5.51;70.17;95202.06;4245884;27;20046;-71
2024/02/21 05:40:19;;;;;;;21.73;17.95;;;;;;;5.65;68.70;95195.00;4234967;27;20040;-69
2024/02/21 05:42:21;;;;;;;22.05;17.77;;;;;;;5.77;68.45;95195.84;4241936;27;20506;-70
2024/02/21 05:44:23;;;;;;;23.75;18.80;;;;;;;5.83;67.49;95192.75;4238048;27;20083;-69
2024/02/21 05:46:25;;;;;;;23.63;19.25;;;;;;;5.92;67.64;95199.88;4232247;27;20051;-69
2024/02/21 05:48:27;;;;;;;21.92;18.63;;;;;;;5.78;68.00;95206.13;4225657;28;20150;-69
2024/02/21 05:50:29;;;;;;;25.45;19.27;;;;;;;5.80;68.52;95204.22;4225832;28;20085;-69
2024/02/21 05:52:31;;;;;;;25.95;18.25;;;;;;;5.87;68.02;95202.81;4244902;27;20044;-68
2024/02/21 05:54:32;;;;;;;23.33;18.85;;;;;;;5.86;68.64;95208.13;4242902;27;20050;-70
2024/02/21 05:56:34;;;;;;;25.70;19.98;;;;;;;5.81;67.89;95207.66;4243202;27;20050;-70
2024/02/21 05:58:36;;;;;;;23.35;19.05;;;;;;;5.91;68.36;95217.22;4234622;27;20131;-71
2024/02/21 06:00:38;;;;;;;25.02;19.02;;;;;;;5.98;68.07;95215.03;4244676;27;20432;-68
2024/02/21 06:02:40;;;;;;;22.02;18.13;;;;;;;6.12;66.94;95214.78;4242858;27;20082;-71
2024/02/21 06:04:42;;;;;;;24.02;18.38;;;;;;;6.21;66.41;95217.63;4241517;27;20047;-71
2024/02/21 06:06:44;;;;;;;28.77;17.90;;;;;;;6.35;66.33;95219.97;4240379;27;20047;-71
2024/02/21 06:08:46;;;;;;;24.88;18.42;;;;;;;6.44;65.71;95214.03;4235729;27;20043;-68
2024/02/21 06:10:48;;;;;;;23.42;16.95;;;;;;;6.49;64.60;95224.06;4242260;27;20051;-69
2024/02/21 06:12:50;;;;;;;19.15;16.70;;;;;;;6.56;64.40;95226.09;4240968;27;20082;-70
2024/02/21 06:14:52;;;;;;;20.35;16.75;;;;;;;6.66;64.97;95220.97;4225668;28;20079;-69
2024/02/21 06:16:54;;;;;;;18.83;15.82;;;;;;;6.71;64.33;95228.41;4225340;28;20043;-70
2024/02/21 06:18:56;;;;;;;18.92;16.08;;;;;;;6.85;64.39;95222.09;4219839;28;20050;-70
2024/02/21 06:20:57;;;;;;;21.90;17.38;;;;;;;6.94;63.72;95224.78;4235937;27;20051;-69
2024/02/21 06:23:00;;;;;;;28.25;20.95;;;;;;;7.00;63.72;95228.69;4219880;28;20058;-69
2024/02/21 06:25:02;;;;;;;24.48;18.48;;;;;;;7.11;63.65;95233.03;4239443;27;20051;-71
2024/02/21 06:27:05;;;;;;;26.25;19.02;;;;;;;7.09;63.67;95227.09;4237396;27;20063;-69
2024/02/21 06:29:13;;;;;;;25.45;17.05;;;;;;;7.13;63.52;95229.34;4238428;27;20038;-72
2024/02/21 06:31:16;;;;;;;28.00;17.98;;;;;;;7.15;63.18;95234.44;4243274;27;20122;-70
2024/02/21 06:33:18;;;;;;;25.05;19.52;;;;;;;6.86;64.05;95231.56;4235527;27;20044;-69
2024/02/21 06:35:20;;;;;;;24.13;18.40;;;;;;;6.82;64.57;95238.81;4243823;27;20055;-69
2024/02/21 06:37:22;;;;;;;22.65;17.50;;;;;;;6.89;64.33;95239.16;4239645;27;20179;-70
2024/02/21 06:39:24;;;;;;;23.50;18.13;;;;;;;6.98;63.71;95241.81;4237645;27;20039;-69
2024/02/21 06:41:26;;;;;;;22.52;16.10;;;;;;;7.00;63.81;95244.31;4232067;27;20487;-70
2024/02/21 06:43:28;;;;;;;18.50;16.50;;;;;;;7.08;63.49;95249.72;4213723;28;20043;-70
2024/02/21 06:45:30;;;;;;;21.48;18.13;;;;;;;7.20;63.24;95252.28;4231724;27;20119;-69
2024/02/21 06:47:32;;;;;;;21.95;17.52;;;;;;;7.26;63.05;95257.81;4242780;27;20055;-69
2024/02/21 06:49:34;;;;;;;23.08;17.40;;;;;;;7.29;62.96;95257.59;4240829;27;20412;-70
2024/02/21 06:51:37;;;;;;;23.02;17.70;;;;;;;7.32;62.78;95257.31;4243445;27;20399;-70
2024/02/21 06:53:38;;;;;;;26.60;17.75;;;;;;;7.38;63.10;95259.44;4219160;28;20040;-69
2024/02/21 06:55:40;;;;;;;22.15;17.17;;;;;;;7.32;62.79;95257.31;4230748;27;20452;-69
2024/02/21 06:57:42;;;;;;;24.23;17.92;;;;;;;7.13;63.62;95260.59;4239748;27;20134;-69
2024/02/21 06:59:44;;;;;;;22.60;17.13;;;;;;;7.14;63.33;95251.00;4242991;27;20047;-69
2024/02/21 07:01:48;;;;;;;21.15;17.20;;;;;;;7.13;64.30;95247.56;4237964;27;20104;-71
2024/02/21 07:03:50;;;;;;;21.70;17.98;;;;;;;7.17;63.58;95258.59;4236485;27;20043;-71
2024/02/21 07:05:52;;;;;;;21.25;18.00;;;;;;;7.24;63.31;95245.88;4232669;27;20051;-73
2024/02/21 07:07:54;;;;;;;22.58;19.02;;;;;;;7.30;63.45;95258.41;4241879;27;20063;-72
2024/02/21 07:09:56;;;;;;;21.30;17.88;;;;;;;7.39;63.04;95261.06;4232212;27;20057;-71
2024/02/21 07:11:59;;;;;;;24.17;18.05;;;;;;;7.49;62.82;95257.72;4221383;28;20154;-69
2024/02/21 07:14:01;;;;;;;22.23;18.50;;;;;;;7.41;62.75;95254.94;4220345;28;20149;-70
2024/02/21 07:16:03;;;;;;;21.90;17.92;;;;;;;7.46;63.09;95266.59;4242019;27;20282;-70
2024/02/21 07:18:05;;;;;;;22.70;18.45;;;;;;;7.43;63.14;95260.84;4239939;27;20120;-70
2024/02/21 07:20:07;;;;;;;25.92;19.30;;;;;;;7.52;63.00;95255.69;4240291;27;20439;-70
2024/02/21 07:22:09;;;;;;;24.15;19.67;;;;;;;7.50;62.53;95262.81;4232650;27;20051;-70
2024/02/21 07:24:12;;;;;;;22.23;18.02;;;;;;;7.60;62.58;95262.88;4240504;27;20655;-69
2024/02/21 07:26:14;;;;;;;21.00;18.42;;;;;;;7.57;62.61;95269.19;4230124;27;20043;-70
2024/02/21 07:28:16;;;;;;;21.08;18.00;;;;;;;7.65;62.57;95260.72;4224726;28;20043;-71
2024/02/21 07:30:18;;;;;;;23.30;18.13;;;;;;;7.78;62.86;95263.13;4222445;27;20047;-71
2024/02/21 07:32:20;;;;;;;23.52;19.30;;;;;;;7.77;62.15;95267.53;4232054;27;20046;-72
2024/02/21 07:34:22;;;;;;;23.25;19.27;;;;;;;7.72;62.49;95271.47;4243088;27;20479;-71
2024/02/21 07:36:29;;;;;;;22.15;16.90;;;;;;;7.88;62.41;95260.59;4239499;27;20062;-71
2024/02/21 07:38:31;;;;;;;19.70;16.98;;;;;;;7.96;62.24;95264.22;4233916;27;20054;-70
2024/02/21 07:40:33;;;;;;;21.33;17.35;;;;;;;8.02;61.44;95265.44;4224104;28;20127;-67
2024/02/21 07:42:35;;;;;;;22.45;17.88;;;;;;;7.98;61.93;95270.13;4242867;27;20057;-69
2024/02/21 07:44:37;;;;;;;21.75;17.00;;;;;;;7.98;61.15;95264.91;4243061;27;20459;-70
2024/02/21 07:46:39;;;;;;;22.65;18.05;;;;;;;7.99;61.23;95263.13;4243171;27;20101;-70
2024/02/21 07:48:41;;;;;;;22.48;18.33;;;;;;;7.52;62.23;95266.09;4233546;27;20126;-71
2024/02/21 07:50:43;;;;;;;23.92;18.25;;;;;;;7.12;64.02;95272.00;4242141;27;20175;-72
2024/02/21 07:52:45;;;;;;;23.27;19.05;;;;;;;6.97;64.80;95266.22;4243092;27;20481;-70
2024/02/21 07:54:46;;;;;;;24.50;19.05;;;;;;;6.85;65.04;95262.00;4241622;27;20134;-70
2024/02/21 07:56:48;;;;;;;22.58;18.48;;;;;;;6.69;65.29;95262.41;4231447;27;20440;-70
2024/02/21 07:58:50;;;;;;;23.67;17.73;;;;;;;6.94;65.14;95256.03;4240673;27;20046;-72
2024/02/21 08:00:52;;;;;;;23.15;18.67;;;;;;;7.13;64.48;95263.19;4243097;28;20047;-71
2024/02/21 08:02:54;;;;;;;25.75;18.88;;;;;;;7.36;64.64;95250.09;4229613;28;20387;-71
2024/02/21 08:04:56;;;;;;;24.95;18.98;;;;;;;7.31;64.04;95257.44;4240098;28;20043;-69
2024/02/21 08:07:01;;;;;;;21.30;18.60;;;;;;;7.42;63.72;95253.97;4242097;28;20043;-70
2024/02/21 08:09:03;;;;;;;23.92;18.48;;;;;;;7.59;63.70;95261.22;4243006;28;20601;-70
2024/02/21 08:11:04;;;;;;;21.77;17.35;;;;;;;7.46;63.29;95256.19;4239281;28;20527;-68
2024/02/21 08:13:07;;;;;;;19.23;16.55;;;;;;;7.59;63.08;95261.22;4237496;28;20047;-70
2024/02/21 08:15:10;;;;;;;22.13;16.77;;;;;;;7.73;62.80;95250.47;4241562;28;20402;-70
2024/02/21 08:17:12;;;;;;;22.42;17.98;;;;;;;7.68;62.80;95255.25;4239460;28;20055;-72
2024/02/21 08:19:14;;;;;;;20.80;17.63;;;;;;;7.74;62.03;95252.16;4231866;28;20122;-71
2024/02/21 08:21:17;;;;;;;18.05;16.00;;;;;;;7.87;61.80;95258.91;4222914;28;20048;-70
2024/02/21 08:23:19;;;;;;;17.88;15.98;;;;;;;8.05;62.02;95254.78;4236541;28;20050;-71
2024/02/21 08:25:21;;;;;;;22.42;17.85;;;;;;;7.68;62.15;95259.63;4215533;28;20617;-72
2024/02/21 08:27:24;;;;;;;24.92;17.17;;;;;;;7.71;62.95;95252.38;4233633;28;20055;-71
2024/02/21 08:29:26;;;;;;;20.92;17.17;;;;;;;7.99;62.18;95263.13;4242063;28;20061;-71
2024/02/21 08:31:31;;;;;;;21.38;17.35;;;;;;;8.29;61.49;95254.47;4242653;28;20047;-72
2024/02/21 08:33:33;;;;;;;18.27;16.25;;;;;;;8.16;60.73;95253.88;4242249;28;20090;-73
2024/02/21 08:35:35;;;;;;;17.08;14.48;;;;;;;8.29;60.32;95254.47;4240368;28;20457;-70
2024/02/21 08:37:37;;;;;;;17.48;15.13;;;;;;;8.38;59.80;95253.66;4236499;28;20504;-72
2024/02/21 08:39:39;;;;;;;19.80;15.68;;;;;;;8.61;58.74;95253.50;4211895;28;20044;-70
2024/02/21 08:41:41;;;;;;;34.78;21.65;;;;;;;8.58;58.27;95251.16;4239515;28;20059;-69
2024/02/21 08:43:57;;;;;;;19.42;15.90;;;;;;;8.51;58.63;95255.25;4223550;28;20044;-72
2024/02/21 08:45:59;;;;;;;15.82;14.13;;;;;;;8.53;57.87;95256.78;4241245;28;20047;-70
2024/02/21 08:48:01;;;;;;;18.63;15.40;;;;;;;8.54;58.10;95250.59;4241536;28;20043;-71
2024/02/21 08:50:05;;;;;;;20.60;15.70;;;;;;;8.36;58.43;95257.38;4227028;28;20169;-70
2024/02/21 08:52:19;;;;;;;19.20;15.18;;;;;;;7.92;59.57;95259.38;4235149;27;20074;-71
2024/02/21 08:54:21;;;;;;;17.98;14.35;;;;;;;8.06;60.35;95255.59;4242597;27;20049;-71
2024/02/21 08:56:23;;;;;;;22.58;16.17;;;;;;;8.22;59.76;95250.75;4245063;27;20129;-70
2024/02/21 08:58:26;;;;;;;41.88;23.25;;;;;;;7.97;59.79;95265.84;4245994;27;20429;-69
2024/02/21 09:00:28;;;;;;;17.65;14.98;;;;;;;8.15;59.83;95260.03;4245464;27;20039;-70
2024/02/21 09:02:30;;;;;;;17.23;14.02;;;;;;;8.21;59.15;95260.31;4236784;27;20083;-71
2024/02/21 09:04:32;;;;;;;27.55;17.67;;;;;;;8.29;59.51;95264.91;4245333;27;20051;-69
2024/02/21 09:06:37;;;;;;;21.08;18.05;;;;;;;8.32;59.82;95258.59;4212962;28;20071;-70
2024/02/21 09:08:39;;;;;;;18.40;16.33;;;;;;;8.38;59.82;95258.06;4245165;27;20126;-69
2024/02/21 09:10:41;;;;;;;16.42;14.68;;;;;;;8.50;59.25;95270.09;4244432;27;20084;-70
2024/02/21 09:12:43;;;;;;;20.15;14.75;;;;;;;8.57;58.76;95262.56;4240413;27;20480;-68
2024/02/21 09:14:49;;;;;;;16.20;14.50;;;;;;;8.24;59.03;95274.06;4239292;27;20435;-68
2024/02/21 09:16:51;;;;;;;18.08;14.57;;;;;;;8.06;59.99;95266.84;4239324;27;20074;-69
2024/02/21 09:18:53;;;;;;;14.70;13.05;;;;;;;7.86;61.00;95268.53;4243902;27;20116;-70
2024/02/21 09:20:55;;;;;;;18.75;14.65;;;;;;;7.88;60.60;95264.00;4240148;27;20131;-71
2024/02/21 09:22:57;;;;;;;17.20;13.65;;;;;;;8.21;60.13;95262.94;4245241;27;20085;-71
2024/02/21 09:24:59;;;;;;;16.05;14.35;;;;;;;8.37;59.85;95259.03;4240876;27;20065;-70
2024/02/21 09:27:01;;;;;;;17.08;14.73;;;;;;;8.64;59.86;95253.22;4238915;27;20112;-73
2024/02/21 09:29:03;;;;;;;20.20;16.55;;;;;;;8.92;59.08;95259.47;4225722;28;20043;-71
2024/02/21 09:31:05;;;;;;;20.95;17.88;;;;;;;8.47;60.80;95256.47;4244587;27;20116;-73